sensor_id;sensor_type;location;lat;lon;timestamp;temperature;humidity
68274;SHT30;55104;47.356;19.448;2022-08-01T00:01:02;16.59;75.91
68274;SHT30;55104;47.356;19.448;2022-08-01T00:04:04;16.35;77.49
68274;SHT30;55104;47.356;19.448;2022-08-01T00:07:06;16.37;76.87
68274;SHT30;55104;47.356;19.448;2022-08-01T00:10:13;16.28;77.88
68274;SHT30;55104;47.356;19.448;2022-08-01T00:13:15;16.17;77.96
68274;SHT30;55104;47.356;19.448;2022-08-01T00:16:17;16.18;77.85
68274;SHT30;55104;47.356;19.448;2022-08-01T00:19:20;16.10;77.96
68274;SHT30;55104;47.356;19.448;2022-08-01T00:22:22;16.00;78.76
68274;SHT30;55104;47.356;19.448;2022-08-01T00:25:24;15.90;79.08
68274;SHT30;55104;47.356;19.448;2022-08-01T00:28:35;15.85;78.95
68274;SHT30;55104;47.356;19.448;2022-08-01T00:31:37;15.76;79.61
68274;SHT30;55104;47.356;19.448;2022-08-01T00:34:39;15.74;79.55
68274;SHT30;55104;47.356;19.448;2022-08-01T00:37:41;15.67;79.97
68274;SHT30;55104;47.356;19.448;2022-08-01T00:40:43;15.65;79.73
68274;SHT30;55104;47.356;19.448;2022-08-01T00:43:45;15.63;79.71
68274;SHT30;55104;47.356;19.448;2022-08-01T00:46:47;15.62;79.70
68274;SHT30;55104;47.356;19.448;2022-08-01T00:49:49;15.52;79.69
68274;SHT30;55104;47.356;19.448;2022-08-01T00:52:51;15.51;80.18
68274;SHT30;55104;47.356;19.448;2022-08-01T00:55:53;15.48;79.94
68274;SHT30;55104;47.356;19.448;2022-08-01T00:58:55;15.44;80.22
68274;SHT30;55104;47.356;19.448;2022-08-01T01:01:57;15.38;80.12
68274;SHT30;55104;47.356;19.448;2022-08-01T01:04:59;15.31;80.44
68274;SHT30;55104;47.356;19.448;2022-08-01T01:08:07;15.25;80.52
68274;SHT30;55104;47.356;19.448;2022-08-01T01:11:33;15.24;80.30
68274;SHT30;55104;47.356;19.448;2022-08-01T01:15:10;15.17;80.80
68274;SHT30;55104;47.356;19.448;2022-08-01T01:18:18;15.08;80.75
68274;SHT30;55104;47.356;19.448;2022-08-01T01:24:39;15.07;80.88
68274;SHT30;55104;47.356;19.448;2022-08-01T01:31:13;14.93;81.15
68274;SHT30;55104;47.356;19.448;2022-08-01T01:34:18;14.84;81.06
68274;SHT30;55104;47.356;19.448;2022-08-01T01:37:23;14.87;81.27
68274;SHT30;55104;47.356;19.448;2022-08-01T01:40:28;14.81;81.28
68274;SHT30;55104;47.356;19.448;2022-08-01T01:43:32;14.75;81.31
68274;SHT30;55104;47.356;19.448;2022-08-01T01:46:35;14.69;81.32
68274;SHT30;55104;47.356;19.448;2022-08-01T01:49:38;14.68;81.66
68274;SHT30;55104;47.356;19.448;2022-08-01T01:52:42;14.62;81.53
68274;SHT30;55104;47.356;19.448;2022-08-01T01:55:49;14.61;81.74
68274;SHT30;55104;47.356;19.448;2022-08-01T01:58:54;14.55;81.83
68274;SHT30;55104;47.356;19.448;2022-08-01T02:02:00;14.51;81.77
68274;SHT30;55104;47.356;19.448;2022-08-01T02:05:11;14.48;81.70
68274;SHT30;55104;47.356;19.448;2022-08-01T02:08:15;14.46;81.77
68274;SHT30;55104;47.356;19.448;2022-08-01T02:11:20;14.41;81.85
68274;SHT30;55104;47.356;19.448;2022-08-01T02:14:24;14.36;81.94
68274;SHT30;55104;47.356;19.448;2022-08-01T02:17:29;14.35;81.86
68274;SHT30;55104;47.356;19.448;2022-08-01T02:20:34;14.32;82.00
68274;SHT30;55104;47.356;19.448;2022-08-01T02:23:38;14.29;82.22
68274;SHT30;55104;47.356;19.448;2022-08-01T02:26:45;14.26;82.01
68274;SHT30;55104;47.356;19.448;2022-08-01T02:30:20;14.24;82.69
68274;SHT30;55104;47.356;19.448;2022-08-01T02:33:40;14.18;82.46
68274;SHT30;55104;47.356;19.448;2022-08-01T02:36:44;14.11;83.00
68274;SHT30;55104;47.356;19.448;2022-08-01T02:39:51;14.07;82.76
68274;SHT30;55104;47.356;19.448;2022-08-01T02:42:55;14.04;82.98
68274;SHT30;55104;47.356;19.448;2022-08-01T02:46:01;13.97;83.15
68274;SHT30;55104;47.356;19.448;2022-08-01T02:49:07;13.97;82.90
68274;SHT30;55104;47.356;19.448;2022-08-01T02:52:13;13.94;83.03
68274;SHT30;55104;47.356;19.448;2022-08-01T02:55:17;13.94;82.88
68274;SHT30;55104;47.356;19.448;2022-08-01T02:58:20;13.94;83.06
68274;SHT30;55104;47.356;19.448;2022-08-01T03:01:32;13.93;82.96
68274;SHT30;55104;47.356;19.448;2022-08-01T03:04:38;13.86;82.83
68274;SHT30;55104;47.356;19.448;2022-08-01T03:07:42;13.84;82.93
68274;SHT30;55104;47.356;19.448;2022-08-01T03:10:45;13.83;83.13
68274;SHT30;55104;47.356;19.448;2022-08-01T03:13:50;13.83;83.61
68274;SHT30;55104;47.356;19.448;2022-08-01T03:16:54;13.79;83.32
68274;SHT30;55104;47.356;19.448;2022-08-01T03:19:58;13.79;83.56
68274;SHT30;55104;47.356;19.448;2022-08-01T03:23:07;13.81;83.48
68274;SHT30;55104;47.356;19.448;2022-08-01T03:26:10;13.81;83.61
68274;SHT30;55104;47.356;19.448;2022-08-01T03:29:17;13.80;83.73
68274;SHT30;55104;47.356;19.448;2022-08-01T03:32:22;13.83;83.65
68274;SHT30;55104;47.356;19.448;2022-08-01T03:35:32;13.81;83.96
68274;SHT30;55104;47.356;19.448;2022-08-01T03:38:37;13.80;83.95
68274;SHT30;55104;47.356;19.448;2022-08-01T03:41:46;13.79;83.65
68274;SHT30;55104;47.356;19.448;2022-08-01T03:44:59;13.79;83.84
68274;SHT30;55104;47.356;19.448;2022-08-01T03:48:09;13.77;83.94
68274;SHT30;55104;47.356;19.448;2022-08-01T03:51:13;13.81;83.96
68274;SHT30;55104;47.356;19.448;2022-08-01T03:54:21;13.81;83.98
68274;SHT30;55104;47.356;19.448;2022-08-01T03:57:27;13.84;84.00
68274;SHT30;55104;47.356;19.448;2022-08-01T04:00:38;13.90;83.92
68274;SHT30;55104;47.356;19.448;2022-08-01T04:03:42;13.97;83.96
68274;SHT30;55104;47.356;19.448;2022-08-01T04:06:44;14.01;84.03
68274;SHT30;55104;47.356;19.448;2022-08-01T04:09:46;14.08;83.90
68274;SHT30;55104;47.356;19.448;2022-08-01T04:12:49;14.13;84.19
68274;SHT30;55104;47.356;19.448;2022-08-01T04:15:51;14.25;83.68
68274;SHT30;55104;47.356;19.448;2022-08-01T04:18:54;14.34;83.35
68274;SHT30;55104;47.356;19.448;2022-08-01T04:21:56;14.43;83.18
68274;SHT30;55104;47.356;19.448;2022-08-01T04:24:59;14.52;82.99
68274;SHT30;55104;47.356;19.448;2022-08-01T04:28:03;14.65;82.68
68274;SHT30;55104;47.356;19.448;2022-08-01T04:31:10;14.75;82.20
68274;SHT30;55104;47.356;19.448;2022-08-01T04:34:16;14.81;82.08
68274;SHT30;55104;47.356;19.448;2022-08-01T04:37:19;14.93;81.74
68274;SHT30;55104;47.356;19.448;2022-08-01T04:40:21;14.93;81.36
68274;SHT30;55104;47.356;19.448;2022-08-01T04:43:24;14.97;81.28
68274;SHT30;55104;47.356;19.448;2022-08-01T04:46:27;15.07;81.00
68274;SHT30;55104;47.356;19.448;2022-08-01T04:49:36;15.12;80.76
68274;SHT30;55104;47.356;19.448;2022-08-01T04:52:50;15.21;80.36
68274;SHT30;55104;47.356;19.448;2022-08-01T04:55:53;15.30;80.13
68274;SHT30;55104;47.356;19.448;2022-08-01T04:58:55;15.41;80.47
68274;SHT30;55104;47.356;19.448;2022-08-01T05:02:21;15.58;80.59
68274;SHT30;55104;47.356;19.448;2022-08-01T05:05:23;15.83;79.38
68274;SHT30;55104;47.356;19.448;2022-08-01T05:08:27;16.13;79.33
68274;SHT30;55104;47.356;19.448;2022-08-01T05:11:29;16.38;78.06
68274;SHT30;55104;47.356;19.448;2022-08-01T05:14:32;16.61;77.10
68274;SHT30;55104;47.356;19.448;2022-08-01T05:17:35;16.76;76.50
68274;SHT30;55104;47.356;19.448;2022-08-01T05:20:38;16.99;77.27
68274;SHT30;55104;47.356;19.448;2022-08-01T05:23:40;17.07;76.25
68274;SHT30;55104;47.356;19.448;2022-08-01T05:26:44;17.24;76.93
68274;SHT30;55104;47.356;19.448;2022-08-01T05:29:48;17.39;75.50
68274;SHT30;55104;47.356;19.448;2022-08-01T05:32:50;17.44;75.36
68274;SHT30;55104;47.356;19.448;2022-08-01T05:35:52;17.61;75.08
68274;SHT30;55104;47.356;19.448;2022-08-01T05:38:54;17.79;74.40
68274;SHT30;55104;47.356;19.448;2022-08-01T05:41:57;18.01;73.90
68274;SHT30;55104;47.356;19.448;2022-08-01T05:44:59;18.20;72.87
68274;SHT30;55104;47.356;19.448;2022-08-01T05:48:00;18.38;73.20
68274;SHT30;55104;47.356;19.448;2022-08-01T05:51:03;18.51;71.83
68274;SHT30;55104;47.356;19.448;2022-08-01T05:54:05;18.86;71.33
68274;SHT30;55104;47.356;19.448;2022-08-01T05:57:07;19.24;69.44
68274;SHT30;55104;47.356;19.448;2022-08-01T06:00:10;19.89;67.78
68274;SHT30;55104;47.356;19.448;2022-08-01T06:03:14;20.58;64.99
68274;SHT30;55104;47.356;19.448;2022-08-01T06:06:16;21.41;62.01
68274;SHT30;55104;47.356;19.448;2022-08-01T06:09:18;22.14;61.41
68274;SHT30;55104;47.356;19.448;2022-08-01T06:12:20;23.45;55.59
68274;SHT30;55104;47.356;19.448;2022-08-01T06:15:24;23.84;54.07
68274;SHT30;55104;47.356;19.448;2022-08-01T06:18:26;24.39;52.94
68274;SHT30;55104;47.356;19.448;2022-08-01T06:21:28;24.12;53.49
68274;SHT30;55104;47.356;19.448;2022-08-01T06:24:30;23.77;53.86
68274;SHT30;55104;47.356;19.448;2022-08-01T06:27:34;23.05;56.05
68274;SHT30;55104;47.356;19.448;2022-08-01T06:30:36;22.47;56.58
68274;SHT30;55104;47.356;19.448;2022-08-01T06:33:38;22.09;57.50
68274;SHT30;55104;47.356;19.448;2022-08-01T06:36:40;22.03;58.71
68274;SHT30;55104;47.356;19.448;2022-08-01T06:39:42;21.94;57.32
68274;SHT30;55104;47.356;19.448;2022-08-01T06:42:45;22.06;57.16
68274;SHT30;55104;47.356;19.448;2022-08-01T06:45:48;22.22;56.27
68274;SHT30;55104;47.356;19.448;2022-08-01T06:48:50;22.30;56.32
68274;SHT30;55104;47.356;19.448;2022-08-01T06:51:52;22.54;56.42
68274;SHT30;55104;47.356;19.448;2022-08-01T06:54:54;22.68;56.18
68274;SHT30;55104;47.356;19.448;2022-08-01T06:57:56;22.83;54.66
68274;SHT30;55104;47.356;19.448;2022-08-01T07:00:59;23.04;54.54
68274;SHT30;55104;47.356;19.448;2022-08-01T07:04:01;23.20;54.04
68274;SHT30;55104;47.356;19.448;2022-08-01T07:07:04;23.24;53.22
68274;SHT30;55104;47.356;19.448;2022-08-01T07:10:07;23.38;53.66
68274;SHT30;55104;47.356;19.448;2022-08-01T07:13:10;23.66;52.74
68274;SHT30;55104;47.356;19.448;2022-08-01T07:16:14;23.89;52.01
68274;SHT30;55104;47.356;19.448;2022-08-01T07:19:16;24.21;50.14
68274;SHT30;55104;47.356;19.448;2022-08-01T07:22:18;24.21;48.16
68274;SHT30;55104;47.356;19.448;2022-08-01T07:25:24;24.49;48.04
68274;SHT30;55104;47.356;19.448;2022-08-01T07:28:29;24.56;48.12
68274;SHT30;55104;47.356;19.448;2022-08-01T07:31:31;24.69;48.18
68274;SHT30;55104;47.356;19.448;2022-08-01T07:34:33;24.83;47.56
68274;SHT30;55104;47.356;19.448;2022-08-01T07:37:36;24.94;47.66
68274;SHT30;55104;47.356;19.448;2022-08-01T07:40:50;25.15;48.03
68274;SHT30;55104;47.356;19.448;2022-08-01T07:43:52;25.31;47.21
68274;SHT30;55104;47.356;19.448;2022-08-01T07:47:01;25.49;45.91
68274;SHT30;55104;47.356;19.448;2022-08-01T07:50:05;25.63;44.54
68274;SHT30;55104;47.356;19.448;2022-08-01T07:53:07;25.80;44.34
68274;SHT30;55104;47.356;19.448;2022-08-01T07:56:11;25.88;44.50
68274;SHT30;55104;47.356;19.448;2022-08-01T07:59:13;25.93;43.49
68274;SHT30;55104;47.356;19.448;2022-08-01T08:02:24;26.33;43.78
68274;SHT30;55104;47.356;19.448;2022-08-01T08:05:27;26.18;42.91
68274;SHT30;55104;47.356;19.448;2022-08-01T08:08:49;26.43;43.87
68274;SHT30;55104;47.356;19.448;2022-08-01T08:11:51;26.52;43.36
68274;SHT30;55104;47.356;19.448;2022-08-01T08:14:53;26.49;43.21
68274;SHT30;55104;47.356;19.448;2022-08-01T08:17:55;26.84;43.66
68274;SHT30;55104;47.356;19.448;2022-08-01T08:20:58;27.03;41.76
68274;SHT30;55104;47.356;19.448;2022-08-01T08:24:08;27.20;39.92
68274;SHT30;55104;47.356;19.448;2022-08-01T08:27:27;27.25;39.81
68274;SHT30;55104;47.356;19.448;2022-08-01T08:30:30;27.30;40.77
68274;SHT30;55104;47.356;19.448;2022-08-01T08:33:32;27.42;39.84
68274;SHT30;55104;47.356;19.448;2022-08-01T08:36:34;27.51;38.95
68274;SHT30;55104;47.356;19.448;2022-08-01T08:39:38;27.62;39.27
68274;SHT30;55104;47.356;19.448;2022-08-01T08:42:44;27.86;38.52
68274;SHT30;55104;47.356;19.448;2022-08-01T08:45:48;27.59;38.48
68274;SHT30;55104;47.356;19.448;2022-08-01T08:49:03;27.76;38.94
68274;SHT30;55104;47.356;19.448;2022-08-01T08:52:07;27.74;37.66
68274;SHT30;55104;47.356;19.448;2022-08-01T08:55:10;27.87;37.77
68274;SHT30;55104;47.356;19.448;2022-08-01T08:58:14;27.97;37.23
68274;SHT30;55104;47.356;19.448;2022-08-01T09:01:20;28.21;36.88
68274;SHT30;55104;47.356;19.448;2022-08-01T09:04:24;28.31;36.75
68274;SHT30;55104;47.356;19.448;2022-08-01T09:07:27;28.55;35.88
68274;SHT30;55104;47.356;19.448;2022-08-01T09:10:30;28.83;35.66
68274;SHT30;55104;47.356;19.448;2022-08-01T09:13:33;29.00;35.24
68274;SHT30;55104;47.356;19.448;2022-08-01T09:16:36;28.95;34.05
68274;SHT30;55104;47.356;19.448;2022-08-01T09:19:47;28.56;35.23
68274;SHT30;55104;47.356;19.448;2022-08-01T09:22:49;28.72;34.71
68274;SHT30;55104;47.356;19.448;2022-08-01T09:25:51;29.04;32.69
68274;SHT30;55104;47.356;19.448;2022-08-01T09:29:03;29.04;32.96
68274;SHT30;55104;47.356;19.448;2022-08-01T09:32:06;29.20;33.18
68274;SHT30;55104;47.356;19.448;2022-08-01T09:35:31;29.39;33.24
68274;SHT30;55104;47.356;19.448;2022-08-01T09:38:44;29.51;32.55
68274;SHT30;55104;47.356;19.448;2022-08-01T09:41:54;29.57;32.93
68274;SHT30;55104;47.356;19.448;2022-08-01T09:44:57;29.89;31.97
68274;SHT30;55104;47.356;19.448;2022-08-01T09:48:08;29.96;31.72
68274;SHT30;55104;47.356;19.448;2022-08-01T09:51:11;30.16;32.89
68274;SHT30;55104;47.356;19.448;2022-08-01T09:54:34;30.48;31.49
68274;SHT30;55104;47.356;19.448;2022-08-01T09:57:36;30.62;30.88
68274;SHT30;55104;47.356;19.448;2022-08-01T10:00:40;30.92;30.49
68274;SHT30;55104;47.356;19.448;2022-08-01T10:03:46;30.21;30.84
68274;SHT30;55104;47.356;19.448;2022-08-01T10:06:50;30.21;31.43
68274;SHT30;55104;47.356;19.448;2022-08-01T10:10:09;29.76;34.66
68274;SHT30;55104;47.356;19.448;2022-08-01T10:13:12;29.57;35.67
68274;SHT30;55104;47.356;19.448;2022-08-01T10:16:15;29.65;35.30
68274;SHT30;55104;47.356;19.448;2022-08-01T10:19:21;29.31;35.26
68274;SHT30;55104;47.356;19.448;2022-08-01T10:22:24;29.34;35.49
68274;SHT30;55104;47.356;19.448;2022-08-01T10:25:35;29.11;35.71
68274;SHT30;55104;47.356;19.448;2022-08-01T10:28:46;29.14;36.68
68274;SHT30;55104;47.356;19.448;2022-08-01T10:31:50;29.13;36.33
68274;SHT30;55104;47.356;19.448;2022-08-01T10:34:54;29.23;36.49
68274;SHT30;55104;47.356;19.448;2022-08-01T10:37:56;29.66;35.66
68274;SHT30;55104;47.356;19.448;2022-08-01T10:41:02;29.61;34.38
68274;SHT30;55104;47.356;19.448;2022-08-01T10:44:08;30.10;34.26
68274;SHT30;55104;47.356;19.448;2022-08-01T10:47:12;30.06;33.28
68274;SHT30;55104;47.356;19.448;2022-08-01T10:50:38;30.10;32.15
68274;SHT30;55104;47.356;19.448;2022-08-01T10:53:52;30.24;32.57
68274;SHT30;55104;47.356;19.448;2022-08-01T10:56:59;30.35;32.14
68274;SHT30;55104;47.356;19.448;2022-08-01T11:00:03;30.35;32.78
68274;SHT30;55104;47.356;19.448;2022-08-01T11:03:07;30.38;32.13
68274;SHT30;55104;47.356;19.448;2022-08-01T11:06:17;30.21;32.40
68274;SHT30;55104;47.356;19.448;2022-08-01T11:09:26;30.64;32.59
68274;SHT30;55104;47.356;19.448;2022-08-01T11:12:39;30.20;32.03
68274;SHT30;55104;47.356;19.448;2022-08-01T11:15:44;30.20;32.51
68274;SHT30;55104;47.356;19.448;2022-08-01T11:18:51;30.13;32.97
68274;SHT30;55104;47.356;19.448;2022-08-01T11:25:03;30.24;31.48
68274;SHT30;55104;47.356;19.448;2022-08-01T11:31:30;29.58;33.83
68274;SHT30;55104;47.356;19.448;2022-08-01T11:34:55;29.59;32.84
68274;SHT30;55104;47.356;19.448;2022-08-01T11:38:24;29.89;33.38
68274;SHT30;55104;47.356;19.448;2022-08-01T11:41:30;29.73;31.81
68274;SHT30;55104;47.356;19.448;2022-08-01T11:44:50;30.30;31.50
68274;SHT30;55104;47.356;19.448;2022-08-01T11:47:52;30.44;30.98
68274;SHT30;55104;47.356;19.448;2022-08-01T11:50:58;30.85;29.25
68274;SHT30;55104;47.356;19.448;2022-08-01T11:54:03;30.76;29.54
68274;SHT30;55104;47.356;19.448;2022-08-01T11:57:08;30.61;29.91
68274;SHT30;55104;47.356;19.448;2022-08-01T12:00:15;30.60;28.75
68274;SHT30;55104;47.356;19.448;2022-08-01T12:03:31;30.57;31.21
68274;SHT30;55104;47.356;19.448;2022-08-01T12:06:35;30.38;30.05
68274;SHT30;55104;47.356;19.448;2022-08-01T12:09:37;30.34;27.54
68274;SHT30;55104;47.356;19.448;2022-08-01T12:12:47;30.35;28.63
68274;SHT30;55104;47.356;19.448;2022-08-01T12:15:50;30.09;27.44
68274;SHT30;55104;47.356;19.448;2022-08-01T12:18:57;30.27;28.66
68274;SHT30;55104;47.356;19.448;2022-08-01T12:22:13;30.07;29.21
68274;SHT30;55104;47.356;19.448;2022-08-01T12:25:17;30.58;29.57
68274;SHT30;55104;47.356;19.448;2022-08-01T12:28:19;30.65;29.12
68274;SHT30;55104;47.356;19.448;2022-08-01T12:31:31;31.00;29.47
68274;SHT30;55104;47.356;19.448;2022-08-01T12:34:33;30.93;29.69
68274;SHT30;55104;47.356;19.448;2022-08-01T12:40:42;30.98;29.56
68274;SHT30;55104;47.356;19.448;2022-08-01T12:43:46;30.85;30.30
68274;SHT30;55104;47.356;19.448;2022-08-01T12:46:49;31.15;31.07
68274;SHT30;55104;47.356;19.448;2022-08-01T12:49:51;31.07;31.27
68274;SHT30;55104;47.356;19.448;2022-08-01T12:52:54;31.00;31.25
68274;SHT30;55104;47.356;19.448;2022-08-01T12:55:56;30.86;31.41
68274;SHT30;55104;47.356;19.448;2022-08-01T12:59:00;31.15;31.21
68274;SHT30;55104;47.356;19.448;2022-08-01T13:02:08;31.09;31.51
68274;SHT30;55104;47.356;19.448;2022-08-01T13:05:11;31.02;31.33
68274;SHT30;55104;47.356;19.448;2022-08-01T13:08:15;31.00;30.94
68274;SHT30;55104;47.356;19.448;2022-08-01T13:11:18;31.36;30.74
68274;SHT30;55104;47.356;19.448;2022-08-01T13:14:28;31.41;30.05
68274;SHT30;55104;47.356;19.448;2022-08-01T13:17:32;31.36;29.77
68274;SHT30;55104;47.356;19.448;2022-08-01T13:20:35;31.13;30.07
68274;SHT30;55104;47.356;19.448;2022-08-01T13:23:41;31.07;30.04
68274;SHT30;55104;47.356;19.448;2022-08-01T13:27:04;31.23;29.79
68274;SHT30;55104;47.356;19.448;2022-08-01T13:30:15;31.45;29.55
68274;SHT30;55104;47.356;19.448;2022-08-01T13:33:17;31.51;28.92
68274;SHT30;55104;47.356;19.448;2022-08-01T13:36:19;31.60;28.84
68274;SHT30;55104;47.356;19.448;2022-08-01T13:39:29;31.71;29.59
68274;SHT30;55104;47.356;19.448;2022-08-01T13:42:43;31.45;29.82
68274;SHT30;55104;47.356;19.448;2022-08-01T13:45:46;31.26;30.23
68274;SHT30;55104;47.356;19.448;2022-08-01T13:48:49;31.31;30.50
68274;SHT30;55104;47.356;19.448;2022-08-01T13:51:51;31.06;31.43
68274;SHT30;55104;47.356;19.448;2022-08-01T13:54:53;31.00;31.77
68274;SHT30;55104;47.356;19.448;2022-08-01T13:57:56;30.45;32.64
68274;SHT30;55104;47.356;19.448;2022-08-01T14:00:58;30.43;33.01
68274;SHT30;55104;47.356;19.448;2022-08-01T14:04:00;30.60;32.83
68274;SHT30;55104;47.356;19.448;2022-08-01T14:07:03;30.88;33.56
68274;SHT30;55104;47.356;19.448;2022-08-01T14:10:12;31.04;33.35
68274;SHT30;55104;47.356;19.448;2022-08-01T14:13:20;31.19;31.90
68274;SHT30;55104;47.356;19.448;2022-08-01T14:16:24;31.33;30.90
68274;SHT30;55104;47.356;19.448;2022-08-01T14:19:26;31.25;31.46
68274;SHT30;55104;47.356;19.448;2022-08-01T14:22:39;30.86;32.38
68274;SHT30;55104;47.356;19.448;2022-08-01T14:25:42;30.92;33.11
68274;SHT30;55104;47.356;19.448;2022-08-01T14:29:04;31.20;32.63
68274;SHT30;55104;47.356;19.448;2022-08-01T14:32:06;31.41;32.11
68274;SHT30;55104;47.356;19.448;2022-08-01T14:35:09;31.19;32.34
68274;SHT30;55104;47.356;19.448;2022-08-01T14:38:11;31.25;33.29
68274;SHT30;55104;47.356;19.448;2022-08-01T14:41:22;31.10;34.40
68274;SHT30;55104;47.356;19.448;2022-08-01T14:44:24;30.83;33.57
68274;SHT30;55104;47.356;19.448;2022-08-01T14:47:34;31.25;32.85
68274;SHT30;55104;47.356;19.448;2022-08-01T14:50:38;31.34;32.07
68274;SHT30;55104;47.356;19.448;2022-08-01T14:53:41;31.33;32.44
68274;SHT30;55104;47.356;19.448;2022-08-01T14:56:51;31.41;31.49
68274;SHT30;55104;47.356;19.448;2022-08-01T14:59:54;31.48;31.85
68274;SHT30;55104;47.356;19.448;2022-08-01T15:02:56;31.17;32.40
68274;SHT30;55104;47.356;19.448;2022-08-01T15:05:58;31.29;32.69
68274;SHT30;55104;47.356;19.448;2022-08-01T15:09:01;31.06;32.45
68274;SHT30;55104;47.356;19.448;2022-08-01T15:12:09;31.16;32.61
68274;SHT30;55104;47.356;19.448;2022-08-01T15:15:12;31.22;31.74
68274;SHT30;55104;47.356;19.448;2022-08-01T15:18:14;31.09;32.28
68274;SHT30;55104;47.356;19.448;2022-08-01T15:21:16;30.86;31.43
68274;SHT30;55104;47.356;19.448;2022-08-01T15:24:39;30.98;31.74
68274;SHT30;55104;47.356;19.448;2022-08-01T15:27:41;31.02;32.21
68274;SHT30;55104;47.356;19.448;2022-08-01T15:30:44;31.33;32.15
68274;SHT30;55104;47.356;19.448;2022-08-01T15:33:46;31.53;31.43
68274;SHT30;55104;47.356;19.448;2022-08-01T15:36:48;31.55;31.81
68274;SHT30;55104;47.356;19.448;2022-08-01T15:39:51;31.61;32.30
68274;SHT30;55104;47.356;19.448;2022-08-01T15:42:57;31.54;31.23
68274;SHT30;55104;47.356;19.448;2022-08-01T15:46:00;31.30;31.23
68274;SHT30;55104;47.356;19.448;2022-08-01T15:49:04;31.25;31.80
68274;SHT30;55104;47.356;19.448;2022-08-01T15:52:07;31.31;31.86
68274;SHT30;55104;47.356;19.448;2022-08-01T15:55:23;30.93;32.36
68274;SHT30;55104;47.356;19.448;2022-08-01T15:58:25;30.99;32.01
68274;SHT30;55104;47.356;19.448;2022-08-01T16:01:27;30.89;32.46
68274;SHT30;55104;47.356;19.448;2022-08-01T16:04:29;30.86;32.70
68274;SHT30;55104;47.356;19.448;2022-08-01T16:07:31;30.72;34.05
68274;SHT30;55104;47.356;19.448;2022-08-01T16:10:33;30.68;34.07
68274;SHT30;55104;47.356;19.448;2022-08-01T16:13:35;30.64;33.60
68274;SHT30;55104;47.356;19.448;2022-08-01T16:16:37;30.51;34.15
68274;SHT30;55104;47.356;19.448;2022-08-01T16:19:40;30.47;34.62
68274;SHT30;55104;47.356;19.448;2022-08-01T16:22:42;30.23;34.98
68274;SHT30;55104;47.356;19.448;2022-08-01T16:25:45;30.10;35.84
68274;SHT30;55104;47.356;19.448;2022-08-01T16:28:47;29.99;35.76
68274;SHT30;55104;47.356;19.448;2022-08-01T16:31:53;29.89;35.99
68274;SHT30;55104;47.356;19.448;2022-08-01T16:35:02;29.85;35.57
68274;SHT30;55104;47.356;19.448;2022-08-01T16:38:05;29.52;36.46
68274;SHT30;55104;47.356;19.448;2022-08-01T16:41:09;29.55;36.75
68274;SHT30;55104;47.356;19.448;2022-08-01T16:44:24;29.38;36.78
68274;SHT30;55104;47.356;19.448;2022-08-01T16:47:34;29.23;37.03
68274;SHT30;55104;47.356;19.448;2022-08-01T16:50:37;29.04;37.29
68274;SHT30;55104;47.356;19.448;2022-08-01T16:53:39;29.02;37.25
68274;SHT30;55104;47.356;19.448;2022-08-01T16:56:41;28.90;37.81
68274;SHT30;55104;47.356;19.448;2022-08-01T16:59:43;28.70;37.98
68274;SHT30;55104;47.356;19.448;2022-08-01T17:02:45;28.69;38.19
68274;SHT30;55104;47.356;19.448;2022-08-01T17:05:47;28.68;38.00
68274;SHT30;55104;47.356;19.448;2022-08-01T17:08:49;28.52;38.15
68274;SHT30;55104;47.356;19.448;2022-08-01T17:11:51;28.49;38.40
68274;SHT30;55104;47.356;19.448;2022-08-01T17:14:54;28.35;38.45
68274;SHT30;55104;47.356;19.448;2022-08-01T17:17:56;28.28;39.36
68274;SHT30;55104;47.356;19.448;2022-08-01T17:20:58;28.20;39.35
68274;SHT30;55104;47.356;19.448;2022-08-01T17:24:01;28.13;39.81
68274;SHT30;55104;47.356;19.448;2022-08-01T17:27:03;28.01;40.03
68274;SHT30;55104;47.356;19.448;2022-08-01T17:30:18;27.92;40.73
68274;SHT30;55104;47.356;19.448;2022-08-01T17:33:21;27.82;40.75
68274;SHT30;55104;47.356;19.448;2022-08-01T17:36:23;27.74;40.94
68274;SHT30;55104;47.356;19.448;2022-08-01T17:39:25;27.65;41.04
68274;SHT30;55104;47.356;19.448;2022-08-01T17:42:40;27.51;41.56
68274;SHT30;55104;47.356;19.448;2022-08-01T17:45:42;27.43;41.54
68274;SHT30;55104;47.356;19.448;2022-08-01T17:48:52;27.42;41.61
68274;SHT30;55104;47.356;19.448;2022-08-01T17:51:54;27.18;42.25
68274;SHT30;55104;47.356;19.448;2022-08-01T17:54:56;26.97;43.12
68274;SHT30;55104;47.356;19.448;2022-08-01T17:57:59;26.87;43.24
68274;SHT30;55104;47.356;19.448;2022-08-01T18:01:02;26.75;43.58
68274;SHT30;55104;47.356;19.448;2022-08-01T18:04:04;26.56;44.27
68274;SHT30;55104;47.356;19.448;2022-08-01T18:07:06;26.51;44.14
68274;SHT30;55104;47.356;19.448;2022-08-01T18:10:10;26.41;44.57
68274;SHT30;55104;47.356;19.448;2022-08-01T18:13:15;26.25;44.81
68274;SHT30;55104;47.356;19.448;2022-08-01T18:16:21;26.04;45.75
68274;SHT30;55104;47.356;19.448;2022-08-01T18:19:23;25.94;45.61
68274;SHT30;55104;47.356;19.448;2022-08-01T18:22:25;25.77;46.12
68274;SHT30;55104;47.356;19.448;2022-08-01T18:25:38;25.62;47.16
68274;SHT30;55104;47.356;19.448;2022-08-01T18:28:41;25.47;47.13
68274;SHT30;55104;47.356;19.448;2022-08-01T18:31:47;25.33;47.62
68274;SHT30;55104;47.356;19.448;2022-08-01T18:34:49;25.15;48.72
68274;SHT30;55104;47.356;19.448;2022-08-01T18:37:52;24.95;49.39
68274;SHT30;55104;47.356;19.448;2022-08-01T18:40:56;24.76;50.16
68274;SHT30;55104;47.356;19.448;2022-08-01T18:43:59;24.57;50.84
68274;SHT30;55104;47.356;19.448;2022-08-01T18:47:09;24.44;51.07
68274;SHT30;55104;47.356;19.448;2022-08-01T18:50:11;24.36;51.49
68274;SHT30;55104;47.356;19.448;2022-08-01T18:53:13;24.22;52.07
68274;SHT30;55104;47.356;19.448;2022-08-01T18:56:16;24.11;52.26
68274;SHT30;55104;47.356;19.448;2022-08-01T18:59:18;24.01;52.84
68274;SHT30;55104;47.356;19.448;2022-08-01T19:02:20;23.89;53.10
68274;SHT30;55104;47.356;19.448;2022-08-01T19:05:23;23.79;53.65
68274;SHT30;55104;47.356;19.448;2022-08-01T19:08:25;23.67;54.48
68274;SHT30;55104;47.356;19.448;2022-08-01T19:11:27;23.61;54.79
68274;SHT30;55104;47.356;19.448;2022-08-01T19:14:29;23.51;55.21
68274;SHT30;55104;47.356;19.448;2022-08-01T19:17:31;23.42;55.39
68274;SHT30;55104;47.356;19.448;2022-08-01T19:20:35;23.32;56.05
68274;SHT30;55104;47.356;19.448;2022-08-01T19:23:43;23.27;56.24
68274;SHT30;55104;47.356;19.448;2022-08-01T19:27:05;23.24;56.50